createdAt,value
2023-02-09T00:02:54.305Z,-3.55
2023-02-09T00:07:56.356Z,-3.55
2023-02-09T00:13:16.646Z,-3.61
2023-02-09T00:18:18.520Z,-3.84
2023-02-09T00:23:20.187Z,-3.84
2023-02-09T00:28:21.976Z,-3.87
2023-02-09T00:33:26.708Z,-3.91
2023-02-09T00:38:28.468Z,-3.89
2023-02-09T00:43:30.153Z,-3.95
2023-02-09T00:48:32.161Z,-4.03
2023-02-09T00:53:33.897Z,-4.06
2023-02-09T00:58:35.539Z,-4.08
2023-02-09T01:03:37.398Z,-4.08
2023-02-09T01:08:39.000Z,-4.09
2023-02-09T01:13:41.295Z,-4.14
2023-02-09T01:18:43.700Z,-4.26
2023-02-09T01:23:47.122Z,-4.66
2023-02-09T01:28:53.472Z,-4.62
2023-02-09T01:33:57.851Z,-4.59
2023-02-09T01:39:03.702Z,-4.66
2023-02-09T01:44:11.493Z,-4.58
2023-02-09T01:49:21.145Z,-4.59
2023-02-09T01:54:27.117Z,-4.49
2023-02-09T01:59:29.795Z,-4.49
2023-02-09T02:04:32.401Z,-4.46
2023-02-09T02:09:34.304Z,-4.45
2023-02-09T02:14:37.835Z,-4.56
2023-02-09T02:19:58.093Z,-4.82
2023-02-09T02:25:37.943Z,-5.17
2023-02-09T02:31:17.515Z,-5.11
2023-02-09T02:36:42.639Z,-4.90
2023-02-09T02:42:17.050Z,-4.84
2023-02-09T02:47:20.868Z,-4.90
2023-02-09T02:52:22.830Z,-4.97
2023-02-09T02:57:31.197Z,-4.92
2023-02-09T03:02:48.148Z,-4.91
2023-02-09T03:07:50.585Z,-4.87
2023-02-09T03:13:07.877Z,-4.84
2023-02-09T03:18:32.864Z,-5.01
2023-02-09T03:24:11.122Z,-5.20
2023-02-09T03:29:15.696Z,-5.30
2023-02-09T03:34:18.317Z,-5.38
2023-02-09T03:39:20.046Z,-5.65
2023-02-09T03:44:27.748Z,-5.51
2023-02-09T03:49:35.013Z,-5.45
2023-02-09T03:54:37.185Z,-5.37
2023-02-09T03:59:39.695Z,-5.31
2023-02-09T04:04:41.338Z,-5.40
2023-02-09T04:09:43.304Z,-5.44
2023-02-09T04:14:45.056Z,-5.43
2023-02-09T04:19:46.806Z,-5.43
2023-02-09T04:24:48.465Z,-5.43
2023-02-09T04:29:50.228Z,-5.50
2023-02-09T04:34:51.834Z,-5.57
2023-02-09T04:39:53.694Z,-5.65
2023-02-09T04:44:55.382Z,-5.61
2023-02-09T04:49:57.135Z,-5.55
2023-02-09T04:54:58.768Z,-5.46
2023-02-09T05:00:00.429Z,-5.50
2023-02-09T05:05:02.261Z,-5.60
2023-02-09T05:10:04.172Z,-5.64
2023-02-09T05:15:06.062Z,-5.65
2023-02-09T05:20:08.763Z,-5.67
2023-02-09T05:25:10.448Z,-5.74
2023-02-09T05:30:12.464Z,-5.82
2023-02-09T05:35:14.330Z,-5.82
2023-02-09T05:40:16.151Z,-5.78
2023-02-09T05:45:18.002Z,-5.76
2023-02-09T05:50:19.848Z,-5.78
2023-02-09T05:55:21.496Z,-5.81
2023-02-09T06:00:24.979Z,-5.85
2023-02-09T06:05:27.176Z,-6.00
2023-02-09T06:10:29.120Z,-6.05
2023-02-09T06:15:30.918Z,-6.06
2023-02-09T06:20:32.685Z,-6.02
2023-02-09T06:25:34.414Z,-5.67
2023-02-09T06:30:36.198Z,-4.36
2023-02-09T06:35:37.816Z,-3.79
2023-02-09T06:40:39.576Z,-3.45
2023-02-09T06:45:41.385Z,-3.23
2023-02-09T06:50:43.166Z,-3.03
2023-02-09T06:55:44.998Z,-2.89
2023-02-09T07:00:46.947Z,-2.82
2023-02-09T07:05:48.888Z,-2.80
2023-02-09T07:10:50.572Z,-2.64
2023-02-09T07:15:57.108Z,-2.59
2023-02-09T07:21:01.735Z,-3.59
2023-02-09T07:26:05.955Z,-4.09
2023-02-09T07:31:10.307Z,-4.19
2023-02-09T07:36:14.032Z,-4.30
2023-02-09T07:41:19.398Z,-4.38
2023-02-09T07:46:22.755Z,-4.42
2023-02-09T07:51:28.715Z,-4.38
2023-02-09T07:56:30.504Z,-4.22
2023-02-09T08:01:33.754Z,-4.14
2023-02-09T08:06:43.201Z,-4.05
2023-02-09T08:11:53.169Z,-4.00
2023-02-09T08:17:20.080Z,-3.94
2023-02-09T08:22:24.838Z,-3.83
2023-02-09T08:27:26.905Z,-3.69
2023-02-09T08:32:28.770Z,-3.51
2023-02-09T08:37:31.269Z,-3.31
2023-02-09T08:42:33.178Z,-3.10
2023-02-09T08:47:35.001Z,-2.90
2023-02-09T08:52:36.672Z,-2.69
2023-02-09T08:57:44.015Z,-2.55
2023-02-09T09:02:46.349Z,-2.34
2023-02-09T09:07:48.277Z,-2.19
2023-02-09T09:12:51.822Z,-2.05
2023-02-09T09:17:53.568Z,-1.93
2023-02-09T09:22:59.326Z,-1.81
2023-02-09T09:28:01.503Z,-1.69
2023-02-09T09:33:04.221Z,-1.56
2023-02-09T09:38:05.827Z,-1.44
2023-02-09T09:43:19.174Z,-1.37
2023-02-09T09:48:26.831Z,-1.21
2023-02-09T09:53:36.706Z,-1.08
2023-02-09T09:58:44.183Z,-0.96
2023-02-09T10:03:45.848Z,-0.85
2023-02-09T10:09:03.181Z,-0.72
2023-02-09T10:14:04.833Z,-0.68
2023-02-09T10:19:17.232Z,-0.53
2023-02-09T10:24:30.712Z,-0.44
2023-02-09T10:29:32.427Z,-0.34
2023-02-09T10:34:46.461Z,-0.22
2023-02-09T10:40:00.975Z,-0.10
2023-02-09T10:45:23.622Z,0.04
2023-02-09T10:50:25.368Z,0.18
2023-02-09T10:55:40.386Z,0.36
2023-02-09T11:00:41.950Z,0.52
2023-02-09T11:05:45.711Z,0.61
2023-02-09T11:11:08.117Z,0.73
2023-02-09T11:16:28.438Z,0.80
2023-02-09T11:21:40.905Z,0.95
2023-02-09T11:26:50.796Z,1.12
2023-02-09T11:32:20.634Z,1.25
2023-02-09T11:37:28.277Z,1.42
2023-02-09T11:42:44.607Z,1.57
2023-02-09T11:48:13.832Z,1.57
2023-02-09T11:53:33.642Z,1.67
2023-02-09T11:58:44.490Z,1.68
2023-02-09T12:04:18.609Z,1.83
2023-02-09T12:09:36.626Z,1.94
2023-02-09T12:14:49.017Z,2.04
2023-02-09T12:20:01.401Z,2.09
2023-02-09T12:25:12.183Z,2.37
2023-02-09T12:30:44.967Z,2.50
2023-02-09T12:36:23.983Z,2.48
2023-02-09T12:41:29.390Z,2.53
2023-02-09T12:46:31.196Z,2.67
2023-02-09T12:51:42.043Z,2.82
2023-02-09T12:56:43.762Z,2.98
2023-02-09T13:02:04.161Z,3.01
2023-02-09T13:07:15.041Z,3.12
2023-02-09T13:12:22.249Z,3.25
2023-02-09T13:17:35.074Z,3.43
2023-02-09T13:23:32.040Z,3.37
2023-02-09T13:28:33.690Z,3.39
2023-02-09T13:33:47.453Z,3.42
2023-02-09T13:38:49.374Z,3.29
2023-02-09T13:43:51.033Z,3.13
2023-02-09T13:48:52.933Z,3.18
2023-02-09T13:54:00.963Z,3.29
2023-02-09T13:59:02.713Z,3.37
2023-02-09T14:04:11.923Z,3.42
2023-02-09T14:09:20.778Z,3.53
2023-02-09T14:14:28.382Z,3.44
2023-02-09T14:19:33.434Z,3.48
2023-02-09T14:24:43.835Z,3.56
2023-02-09T14:29:48.705Z,3.69
2023-02-09T14:34:51.344Z,3.68
2023-02-09T14:40:06.275Z,3.75
2023-02-09T14:45:14.036Z,3.67
2023-02-09T14:50:18.856Z,3.55
2023-02-09T14:55:25.070Z,3.39
2023-02-09T15:00:28.994Z,3.22
2023-02-09T15:05:30.861Z,3.16
2023-02-09T15:10:38.329Z,3.13
2023-02-09T15:15:40.381Z,3.09
2023-02-09T15:20:41.987Z,3.03
2023-02-09T15:25:44.964Z,2.97
2023-02-09T15:30:47.190Z,2.96
2023-02-09T15:35:50.049Z,2.94
2023-02-09T15:41:10.607Z,2.79
2023-02-09T15:46:13.422Z,2.53
2023-02-09T15:51:16.195Z,2.25
2023-02-09T15:56:18.779Z,2.00
2023-02-09T16:01:20.900Z,1.84
2023-02-09T16:06:26.710Z,1.73
2023-02-09T16:11:35.206Z,1.61
2023-02-09T16:16:36.889Z,1.44
2023-02-09T16:21:40.602Z,1.40
2023-02-09T16:26:42.259Z,1.45
2023-02-09T16:31:44.297Z,1.52
2023-02-09T16:36:48.513Z,1.50
2023-02-09T16:41:50.754Z,1.48
2023-02-09T16:46:56.362Z,1.41
2023-02-09T16:52:02.444Z,1.32
2023-02-09T16:57:04.452Z,1.04
2023-02-09T17:02:40.692Z,0.90
2023-02-09T17:07:53.883Z,0.78
2023-02-09T17:12:57.758Z,0.80
2023-02-09T17:18:04.040Z,0.82
2023-02-09T17:23:05.766Z,0.67
2023-02-09T17:28:07.480Z,0.62
2023-02-09T17:33:16.047Z,0.54
2023-02-09T17:38:21.041Z,0.46
2023-02-09T17:43:23.836Z,0.32
2023-02-09T17:48:25.909Z,0.29
2023-02-09T17:53:32.214Z,0.16
2023-02-09T17:58:34.105Z,0.01
2023-02-09T18:03:35.711Z,-0.02
2023-02-09T18:08:37.349Z,-0.05
2023-02-09T18:13:39.589Z,-0.19
2023-02-09T18:18:42.976Z,-0.23
2023-02-09T18:23:44.906Z,-0.37
2023-02-09T18:28:46.565Z,-0.48
2023-02-09T18:33:48.542Z,-0.63
2023-02-09T18:38:52.091Z,-0.65
2023-02-09T18:43:54.501Z,-0.65
2023-02-09T18:48:56.477Z,-0.82
2023-02-09T18:53:58.893Z,-1.05
2023-02-09T18:59:00.623Z,-1.04
2023-02-09T19:04:02.646Z,-1.22
2023-02-09T19:09:04.586Z,-1.31
2023-02-09T19:14:24.547Z,-1.25
2023-02-09T19:19:26.362Z,-1.29
2023-02-09T19:24:28.252Z,-1.31
2023-02-09T19:29:30.084Z,-1.35
2023-02-09T19:34:35.121Z,-1.40
2023-02-09T19:39:38.658Z,-1.39
2023-02-09T19:44:40.306Z,-1.41
2023-02-09T19:49:42.002Z,-1.43
2023-02-09T19:54:43.673Z,-1.51
2023-02-09T19:59:45.320Z,-1.48
2023-02-09T20:04:47.094Z,-1.59
2023-02-09T20:09:50.331Z,-1.62
2023-02-09T20:14:53.967Z,-1.64
2023-02-09T20:19:55.824Z,-1.72
2023-02-09T20:24:57.654Z,-1.80
2023-02-09T20:30:01.371Z,-1.89
2023-02-09T20:35:04.923Z,-1.93
2023-02-09T20:40:11.034Z,-2.00
2023-02-09T20:45:35.826Z,-2.06
2023-02-09T20:50:37.574Z,-2.11
2023-02-09T20:55:39.336Z,-2.13
2023-02-09T21:00:42.413Z,-2.26
2023-02-09T21:05:44.187Z,-2.42
2023-02-09T21:10:46.010Z,-2.44
2023-02-09T21:15:48.696Z,-2.40
2023-02-09T21:20:51.593Z,-2.42
2023-02-09T21:26:04.725Z,-2.46
2023-02-09T21:31:11.382Z,-2.46
2023-02-09T21:36:13.751Z,-2.47
2023-02-09T21:41:40.755Z,-2.46
2023-02-09T21:46:43.765Z,-2.54
2023-02-09T21:51:45.570Z,-2.59
2023-02-09T21:56:47.277Z,-2.63
2023-02-09T22:01:48.983Z,-2.67
2023-02-09T22:06:50.726Z,-2.67
2023-02-09T22:11:52.389Z,-2.68
2023-02-09T22:16:54.658Z,-2.67
2023-02-09T22:21:57.919Z,-2.65
2023-02-09T22:26:59.881Z,-2.68
2023-02-09T22:32:01.739Z,-2.79
2023-02-09T22:37:04.228Z,-3.10
2023-02-09T22:42:05.982Z,-3.24
2023-02-09T22:47:07.891Z,-3.22
2023-02-09T22:52:09.604Z,-3.24
2023-02-09T22:57:11.473Z,-3.26
2023-02-09T23:02:13.226Z,-3.22
2023-02-09T23:07:14.891Z,-3.11
2023-02-09T23:12:16.511Z,-3.15
2023-02-09T23:17:18.160Z,-3.33
2023-02-09T23:22:19.959Z,-3.32
2023-02-09T23:27:22.091Z,-3.29
2023-02-09T23:32:23.699Z,-3.16
2023-02-09T23:37:37.325Z,-3.12
2023-02-09T23:42:39.605Z,-3.15
2023-02-09T23:47:41.325Z,-3.29
2023-02-09T23:52:43.029Z,-3.28
2023-02-09T23:57:44.890Z,-3.31
